createdAt,value
2023-03-11T00:00:50.679Z,12.26
2023-03-11T00:01:50.692Z,12.40
2023-03-11T00:04:50.613Z,12.65
2023-03-11T00:05:50.589Z,12.58
2023-03-11T00:06:50.606Z,12.59
2023-03-11T00:11:52.375Z,12.48
2023-03-11T00:12:52.185Z,12.37
2023-03-11T00:13:52.336Z,12.15
2023-03-11T00:22:51.523Z,12.00
2023-03-11T00:23:51.572Z,12.12
2023-03-11T00:24:51.343Z,12.24
2023-03-11T00:25:51.293Z,12.31
2023-03-11T00:26:51.273Z,12.33
2023-03-11T01:24:46.162Z,12.51
2023-03-11T01:51:42.023Z,12.75
2023-03-11T01:52:41.744Z,12.76
2023-03-11T01:54:41.719Z,12.68
2023-03-11T01:55:41.666Z,12.71
2023-03-11T02:18:41.784Z,12.53
2023-03-11T02:19:41.592Z,12.51
2023-03-11T02:20:41.746Z,12.53
2023-03-11T02:21:41.537Z,12.51
2023-03-11T02:22:41.514Z,12.51
2023-03-11T02:23:41.458Z,12.43
2023-03-11T03:09:22.119Z,11.21
2023-03-11T03:16:21.359Z,11.00
2023-03-11T03:17:21.427Z,11.10
2023-03-11T03:18:21.131Z,11.07
2023-03-11T03:19:21.150Z,11.08
2023-03-11T03:20:21.135Z,11.11
2023-03-11T03:21:21.141Z,10.99
2023-03-11T03:22:21.148Z,10.94
2023-03-11T03:23:21.084Z,11.01
2023-03-11T03:25:41.405Z,10.82
2023-03-11T03:26:41.201Z,10.87
2023-03-11T03:27:41.383Z,10.84
2023-03-11T03:28:41.155Z,10.84
2023-03-11T03:29:41.085Z,10.81
2023-03-11T03:30:41.140Z,10.77
2023-03-11T03:31:41.115Z,10.72
2023-03-11T03:32:41.201Z,10.66
2023-03-11T03:33:41.163Z,10.64
2023-03-11T03:34:41.067Z,10.69
2023-03-11T03:35:41.069Z,10.57
2023-03-11T03:36:41.073Z,10.58
2023-03-11T03:37:41.084Z,10.59
2023-03-11T03:38:41.052Z,10.60
2023-03-11T03:42:20.949Z,9.89
2023-03-11T03:44:40.515Z,10.02
2023-03-11T03:45:40.551Z,10.11
2023-03-11T03:56:16.257Z,9.88
2023-03-11T03:57:16.264Z,9.98
2023-03-11T03:58:15.964Z,10.04
2023-03-11T04:00:35.824Z,10.20
2023-03-11T04:01:35.815Z,10.33
2023-03-11T04:02:35.710Z,10.41
2023-03-11T04:03:35.615Z,10.45
2023-03-11T04:04:35.584Z,10.46
2023-03-11T04:05:35.594Z,10.38
2023-03-11T04:06:35.609Z,10.27
2023-03-11T04:07:35.604Z,10.20
2023-03-11T04:08:35.562Z,10.22
2023-03-11T04:09:35.567Z,10.28
2023-03-11T04:10:35.582Z,10.30
2023-03-11T04:11:35.581Z,10.33
2023-03-11T04:12:35.538Z,10.37
2023-03-11T04:13:35.553Z,10.34
2023-03-11T04:14:35.513Z,10.29
2023-03-11T04:15:35.506Z,10.33
2023-03-11T04:16:35.535Z,10.28
2023-03-11T04:17:35.533Z,10.29
2023-03-11T04:18:35.471Z,10.26
2023-03-11T04:19:35.485Z,10.26
2023-03-11T04:20:35.492Z,10.24
2023-03-11T04:22:35.462Z,10.30
2023-03-11T04:23:35.476Z,10.07
2023-03-11T04:24:35.476Z,10.06
2023-03-11T04:25:35.424Z,10.06
2023-03-11T04:26:35.419Z,10.05
2023-03-11T04:27:35.429Z,10.03
2023-03-11T04:28:35.395Z,10.03
2023-03-11T04:29:35.413Z,9.93
2023-03-11T04:30:35.409Z,9.84
2023-03-11T04:31:35.445Z,9.90
2023-03-11T04:32:35.434Z,9.88
2023-03-11T04:33:35.415Z,9.80
2023-03-11T04:34:35.374Z,9.82
2023-03-11T04:36:55.546Z,9.60
2023-03-11T04:37:55.762Z,9.75
2023-03-11T04:38:55.477Z,9.85
2023-03-11T04:39:55.465Z,9.73
2023-03-11T04:40:55.454Z,9.72
2023-03-11T04:41:55.443Z,9.86
2023-03-11T04:42:55.459Z,9.96
2023-03-11T04:43:55.424Z,10.04
2023-03-11T04:44:55.418Z,10.11
2023-03-11T04:47:15.739Z,10.02
2023-03-11T04:48:15.539Z,10.01
2023-03-11T04:49:15.755Z,10.08
2023-03-11T04:50:15.495Z,10.03
2023-03-11T04:51:15.446Z,10.02
2023-03-11T04:52:15.514Z,10.11
2023-03-11T04:57:13.638Z,9.68
2023-03-11T05:05:54.125Z,10.09
2023-03-11T05:08:14.016Z,10.05
2023-03-11T05:09:13.962Z,10.08
2023-03-11T05:10:13.776Z,10.09
2023-03-11T05:11:13.712Z,10.10
2023-03-11T05:12:13.738Z,10.17
2023-03-11T05:13:13.711Z,10.19
2023-03-11T05:14:13.730Z,10.10
2023-03-11T05:15:13.697Z,10.12
2023-03-11T05:16:13.711Z,10.17
2023-03-11T05:17:13.697Z,10.29
2023-03-11T05:31:33.751Z,10.03
2023-03-11T05:33:53.656Z,9.97
2023-03-11T05:34:53.908Z,10.01
2023-03-11T05:36:08.964Z,9.98
2023-03-11T05:36:53.466Z,9.86
2023-03-11T05:37:53.761Z,9.92
2023-03-11T05:38:53.427Z,9.89
2023-03-11T05:39:53.484Z,9.92
2023-03-11T05:40:56.117Z,9.98
2023-03-11T05:47:33.753Z,10.07
2023-03-11T05:49:53.854Z,10.12
2023-03-11T05:50:53.633Z,10.20
2023-03-11T05:51:54.039Z,10.12
2023-03-11T05:52:53.603Z,10.02
2023-03-11T05:53:53.585Z,10.02
2023-03-11T05:54:53.591Z,10.06
2023-03-11T05:55:53.565Z,10.10
2023-03-11T05:58:14.017Z,10.13
2023-03-11T05:59:16.268Z,10.12
2023-03-11T06:01:13.648Z,10.14
2023-03-11T06:02:13.611Z,10.16
2023-03-11T06:03:13.613Z,10.17
2023-03-11T06:04:13.764Z,10.23
2023-03-11T06:05:14.120Z,10.21
2023-03-11T06:06:13.589Z,10.24
2023-03-11T06:07:13.583Z,10.27
2023-03-11T06:08:13.532Z,10.23
2023-03-11T06:09:13.557Z,10.23
2023-03-11T06:10:13.626Z,10.23
2023-03-11T06:11:13.573Z,10.31
2023-03-11T06:12:13.582Z,10.37
2023-03-11T06:13:13.532Z,10.39
2023-03-11T06:14:13.537Z,10.41
2023-03-11T06:15:13.604Z,10.43
2023-03-11T06:16:13.567Z,10.43
2023-03-11T06:17:13.538Z,10.47
2023-03-11T06:18:13.571Z,10.53
2023-03-11T06:19:13.504Z,10.57
2023-03-11T06:20:13.521Z,10.50
2023-03-11T06:21:13.492Z,10.46
2023-03-11T06:22:13.492Z,10.50
2023-03-11T06:23:13.489Z,10.57
2023-03-11T06:24:13.507Z,10.67
2023-03-11T06:25:13.458Z,10.66
2023-03-11T06:26:13.476Z,10.66
2023-03-11T06:27:13.469Z,10.62
2023-03-11T06:28:13.438Z,10.56
2023-03-11T06:29:13.436Z,10.58
2023-03-11T06:30:13.445Z,10.60
2023-03-11T06:31:13.465Z,10.57
2023-03-11T06:32:13.533Z,10.53
2023-03-11T06:34:13.494Z,10.64
2023-03-11T06:35:13.726Z,10.59
2023-03-11T06:38:53.552Z,10.52
2023-03-11T06:39:53.195Z,10.43
2023-03-11T06:40:53.398Z,10.44
2023-03-11T06:41:53.089Z,10.48
2023-03-11T06:42:53.116Z,10.48
2023-03-11T06:43:53.122Z,10.53
2023-03-11T06:44:53.085Z,10.51
2023-03-11T06:45:53.082Z,10.51
2023-03-11T06:46:53.899Z,10.55
2023-03-11T06:47:53.088Z,10.49
2023-03-11T06:48:53.026Z,10.56
2023-03-11T06:49:53.053Z,10.63
2023-03-11T06:50:53.047Z,10.69
2023-03-11T06:51:53.059Z,10.68
2023-03-11T06:52:52.997Z,10.56
2023-03-11T06:53:53.028Z,10.43
2023-03-11T06:54:53.032Z,10.42
2023-03-11T06:55:52.980Z,10.37
2023-03-11T06:56:52.982Z,10.36
2023-03-11T06:57:53.019Z,10.45
2023-03-11T06:58:52.977Z,10.53
2023-03-11T06:59:52.977Z,10.60
2023-03-11T07:00:53.026Z,10.62
2023-03-11T07:01:52.986Z,10.66
2023-03-11T07:02:52.928Z,10.69
2023-03-11T07:03:53.070Z,10.75
2023-03-11T07:04:52.934Z,10.78
2023-03-11T07:05:52.951Z,10.79
2023-03-11T07:06:52.909Z,10.77
2023-03-11T07:07:52.942Z,10.76
2023-03-11T07:08:52.939Z,10.86
2023-03-11T07:09:52.883Z,10.91
2023-03-11T07:10:52.982Z,10.89
2023-03-11T07:11:53.125Z,10.80
2023-03-11T07:18:52.088Z,10.63
2023-03-11T07:19:51.991Z,10.64
2023-03-11T07:20:51.954Z,10.62
2023-03-11T07:57:26.648Z,10.26
2023-03-11T07:59:25.994Z,10.56
2023-03-11T08:00:25.974Z,10.49
2023-03-11T08:01:25.962Z,10.54
2023-03-11T08:02:25.933Z,10.50
2023-03-11T08:03:25.979Z,10.61
2023-03-11T08:04:25.988Z,10.69
2023-03-11T08:05:25.933Z,10.84
2023-03-11T08:06:25.909Z,11.00
2023-03-11T08:07:25.928Z,11.07
2023-03-11T08:08:25.924Z,11.12
2023-03-11T08:09:25.923Z,11.19
2023-03-11T08:10:25.872Z,11.29
2023-03-11T08:11:25.874Z,11.42
2023-03-11T08:12:25.876Z,11.42
2023-03-11T08:17:25.103Z,11.33
2023-03-11T08:19:44.945Z,11.01
2023-03-11T08:20:44.970Z,11.10
2023-03-11T08:21:44.741Z,11.28
2023-03-11T08:22:57.236Z,11.41
2023-03-11T08:23:45.705Z,11.50
2023-03-11T08:24:44.673Z,11.57
2023-03-11T08:25:44.683Z,11.52
2023-03-11T08:26:44.669Z,11.46
2023-03-11T08:27:44.666Z,11.47
2023-03-11T08:28:44.686Z,11.51
2023-03-11T08:29:44.634Z,11.56
2023-03-11T08:30:44.706Z,11.58
2023-03-11T08:31:44.643Z,11.63
2023-03-11T08:32:44.724Z,11.47
2023-03-11T08:33:44.638Z,11.44
2023-03-11T08:34:44.679Z,11.64
2023-03-11T08:35:44.609Z,11.79
2023-03-11T08:36:44.591Z,11.87
2023-03-11T08:37:44.662Z,11.95
2023-03-11T08:38:44.645Z,12.03
2023-03-11T08:39:44.624Z,12.07
2023-03-11T08:40:44.653Z,12.26
2023-03-11T08:41:44.694Z,12.53
2023-03-11T08:50:24.885Z,13.16
2023-03-11T08:51:24.669Z,13.16
2023-03-11T08:52:24.901Z,13.33
2023-03-11T08:53:24.594Z,13.19
2023-03-11T08:54:24.592Z,13.06
2023-03-11T08:55:24.581Z,12.99
2023-03-11T08:56:24.554Z,12.85
2023-03-11T08:57:24.529Z,12.93
2023-03-11T08:58:24.550Z,13.03
2023-03-11T08:59:24.560Z,13.20
2023-03-11T09:00:24.514Z,13.35
2023-03-11T09:01:24.526Z,13.35
2023-03-11T09:02:24.574Z,13.42
2023-03-11T09:03:24.553Z,13.41
2023-03-11T09:04:24.487Z,13.42
2023-03-11T09:05:24.506Z,13.58
2023-03-11T09:06:24.505Z,13.60
2023-03-11T09:07:24.531Z,13.70
2023-03-11T09:08:24.513Z,13.53
2023-03-11T09:09:24.518Z,13.53
2023-03-11T09:10:24.486Z,13.48
2023-03-11T09:11:24.506Z,13.42
2023-03-11T09:12:24.540Z,13.45
2023-03-11T09:13:24.437Z,13.52
2023-03-11T09:14:24.415Z,13.43
2023-03-11T09:15:24.491Z,13.43
2023-03-11T09:16:24.494Z,13.47
2023-03-11T09:17:24.425Z,13.61
2023-03-11T09:18:24.442Z,13.61
2023-03-11T09:19:24.435Z,13.60
2023-03-11T09:20:24.413Z,13.56
2023-03-11T09:21:24.422Z,13.68
2023-03-11T09:22:24.395Z,13.71
2023-03-11T09:23:24.422Z,13.63
2023-03-11T09:24:24.364Z,13.57
2023-03-11T09:25:24.385Z,13.70
2023-03-11T09:26:24.389Z,13.88
2023-03-11T09:27:24.335Z,13.93
2023-03-11T09:28:24.354Z,13.89
2023-03-11T09:29:24.345Z,14.08
2023-03-11T09:30:24.352Z,14.39
2023-03-11T09:31:24.344Z,14.16
2023-03-11T09:32:24.315Z,14.25
2023-03-11T09:33:24.330Z,14.53
2023-03-11T09:34:24.353Z,14.79
2023-03-11T09:35:24.320Z,14.87
2023-03-11T09:36:24.299Z,15.09
2023-03-11T09:37:24.276Z,15.09
2023-03-11T09:38:24.276Z,14.77
2023-03-11T09:39:24.277Z,14.75
2023-03-11T09:40:24.345Z,14.71
2023-03-11T09:41:24.300Z,14.71
2023-03-11T09:43:24.411Z,14.84
2023-03-11T09:44:24.666Z,14.95
2023-03-11T09:45:24.324Z,14.84
2023-03-11T09:46:24.557Z,14.89
2023-03-11T09:47:24.320Z,14.70
2023-03-11T09:48:24.309Z,14.64
2023-03-11T09:49:25.389Z,14.54
2023-03-11T09:50:24.310Z,14.54
2023-03-11T09:51:24.380Z,14.53
2023-03-11T09:53:24.268Z,14.40
2023-03-11T09:54:24.432Z,14.41
2023-03-11T09:55:24.213Z,14.42
2023-03-11T09:56:24.229Z,14.61
2023-03-11T09:57:24.527Z,14.74
2023-03-11T09:58:24.177Z,14.88
2023-03-11T09:59:24.140Z,14.74
2023-03-11T10:00:24.140Z,14.77
2023-03-11T10:01:24.167Z,14.85
2023-03-11T10:02:24.247Z,14.97
2023-03-11T10:03:24.158Z,15.07
2023-03-11T10:04:24.136Z,14.93
2023-03-11T10:05:24.070Z,15.04
2023-03-11T10:06:24.126Z,15.18
2023-03-11T10:07:24.098Z,15.41
2023-03-11T10:08:24.112Z,15.78
2023-03-11T10:09:24.050Z,15.95
2023-03-11T10:10:24.087Z,15.74
2023-03-11T10:11:24.046Z,15.88
2023-03-11T10:14:02.731Z,15.91
2023-03-11T10:15:02.621Z,16.50
2023-03-11T10:16:02.763Z,16.78
2023-03-11T10:17:02.497Z,17.07
2023-03-11T10:18:02.498Z,17.52
2023-03-11T10:19:02.513Z,17.94
2023-03-11T10:20:02.524Z,18.00
2023-03-11T10:21:02.483Z,17.84
2023-03-11T10:22:02.472Z,17.85
2023-03-11T10:23:02.502Z,18.13
2023-03-11T10:24:02.576Z,18.21
2023-03-11T10:26:48.599Z,18.60
2023-03-11T10:27:48.390Z,18.97
2023-03-11T10:30:07.832Z,19.58
2023-03-11T10:31:07.757Z,19.75
2023-03-11T10:32:07.678Z,19.87
2023-03-11T10:33:07.672Z,20.03
2023-03-11T10:34:07.692Z,20.05
2023-03-11T10:35:07.661Z,20.13
2023-03-11T10:36:07.660Z,20.08
2023-03-11T10:39:07.589Z,19.64
2023-03-11T10:40:07.561Z,19.71
2023-03-11T10:41:07.618Z,19.73
2023-03-11T10:42:07.570Z,19.75
2023-03-11T10:43:07.587Z,19.80
2023-03-11T10:45:07.557Z,19.94
2023-03-11T10:46:07.606Z,19.92
2023-03-11T10:47:07.564Z,19.96
2023-03-11T10:48:07.617Z,19.82
2023-03-11T10:49:07.520Z,19.74
2023-03-11T10:50:07.528Z,19.75
2023-03-11T10:51:07.542Z,19.74
2023-03-11T10:52:07.520Z,19.80
2023-03-11T10:53:07.553Z,19.57
2023-03-11T10:56:07.501Z,19.88
2023-03-11T10:57:07.477Z,20.09
2023-03-11T10:58:07.524Z,20.16
2023-03-11T10:59:07.499Z,20.00
2023-03-11T12:40:19.787Z,20.35
2023-03-11T12:50:59.402Z,20.12
2023-03-11T12:51:59.222Z,20.30
2023-03-11T12:52:58.925Z,20.30
2023-03-11T13:01:38.187Z,19.52
2023-03-11T13:02:37.988Z,19.56
2023-03-11T13:03:37.859Z,19.66
2023-03-11T13:04:37.870Z,19.71
2023-03-11T13:05:37.881Z,19.93
2023-03-11T13:06:37.840Z,19.95
2023-03-11T13:07:37.861Z,19.99
2023-03-11T13:08:37.835Z,19.95
2023-03-11T13:09:37.824Z,20.02
2023-03-11T13:10:37.854Z,20.29
2023-03-11T13:11:37.847Z,20.23
2023-03-11T13:12:37.829Z,20.21
2023-03-11T13:13:37.806Z,20.52
2023-03-11T13:14:37.969Z,20.41
2023-03-11T13:15:38.012Z,20.04
2023-03-11T13:16:38.879Z,19.87
2023-03-11T13:17:37.806Z,19.93
2023-03-11T13:18:37.845Z,19.99
2023-03-11T13:19:37.818Z,20.06
2023-03-11T13:20:37.828Z,20.26
2023-03-11T13:21:37.806Z,20.28
2023-03-11T13:22:37.826Z,20.20
2023-03-11T13:23:37.842Z,20.24
2023-03-11T13:24:38.061Z,20.27
2023-03-11T13:25:37.978Z,20.25
2023-03-11T13:27:57.753Z,20.13
2023-03-11T13:37:37.576Z,19.46
2023-03-11T13:38:37.361Z,19.63
2023-03-11T13:39:37.042Z,19.20
2023-03-11T13:40:37.452Z,19.07
2023-03-11T13:41:37.554Z,19.06
2023-03-11T13:42:36.988Z,19.12
2023-03-11T13:43:37.597Z,19.24
2023-03-11T13:44:36.975Z,19.40
2023-03-11T13:45:37.013Z,19.43
2023-03-11T13:46:36.978Z,19.24
2023-03-11T13:47:36.982Z,19.20
2023-03-11T13:48:37.620Z,19.26
2023-03-11T13:49:36.933Z,19.06
2023-03-11T13:50:36.940Z,18.95
2023-03-11T13:51:36.965Z,18.88
2023-03-11T13:52:36.914Z,18.77
2023-03-11T13:53:36.915Z,18.90
2023-03-11T13:54:36.961Z,18.42
2023-03-11T13:55:36.956Z,18.53
2023-03-11T13:56:36.873Z,18.46
2023-03-11T13:57:36.897Z,18.37
2023-03-11T13:58:36.888Z,18.26
2023-03-11T13:59:36.857Z,18.33
2023-03-11T14:01:56.467Z,18.51
2023-03-11T14:02:56.349Z,18.50
2023-03-11T14:05:16.577Z,18.05
2023-03-11T14:07:35.664Z,17.82
2023-03-11T14:08:35.633Z,17.79
2023-03-11T14:10:35.233Z,17.35
2023-03-11T14:11:35.314Z,17.33
2023-03-11T14:12:35.210Z,17.34
2023-03-11T14:13:35.353Z,17.23
2023-03-11T14:14:35.223Z,17.09
2023-03-11T14:15:35.169Z,17.10
2023-03-11T14:16:35.287Z,17.03
2023-03-11T14:17:35.185Z,17.08
2023-03-11T14:18:35.198Z,17.10
2023-03-11T14:19:35.210Z,17.00
2023-03-11T14:20:35.180Z,16.94
2023-03-11T14:21:35.220Z,16.97
2023-03-11T14:22:35.138Z,16.54
2023-03-11T14:23:35.127Z,16.57
2023-03-11T14:24:35.121Z,16.47
2023-03-11T14:25:35.112Z,16.50
2023-03-11T14:26:35.198Z,16.47
2023-03-11T14:27:35.118Z,16.18
2023-03-11T14:28:35.109Z,16.37
2023-03-11T14:29:35.141Z,16.32
2023-03-11T14:30:35.129Z,16.36
2023-03-11T14:31:35.167Z,16.30
2023-03-11T14:32:35.148Z,16.24
2023-03-11T14:33:35.093Z,16.08
2023-03-11T14:34:35.098Z,15.85
2023-03-11T14:35:35.059Z,15.82
2023-03-11T14:36:35.056Z,15.83
2023-03-11T14:37:35.067Z,15.91
2023-03-11T14:38:35.022Z,15.95
2023-03-11T14:39:35.037Z,16.02
2023-03-11T14:40:35.033Z,16.05
2023-03-11T14:41:35.041Z,16.09
2023-03-11T14:42:35.018Z,15.74
2023-03-11T14:43:35.001Z,15.60
2023-03-11T14:45:55.190Z,15.50
2023-03-11T14:46:54.952Z,15.51
2023-03-11T14:47:55.088Z,15.62
2023-03-11T14:48:54.875Z,15.53
2023-03-11T14:49:54.874Z,15.51
2023-03-11T14:52:15.137Z,15.16
2023-03-11T14:53:14.959Z,14.89
2023-03-11T14:55:34.835Z,14.50
2023-03-11T14:57:34.872Z,14.65
2023-03-11T14:58:34.732Z,14.76
2023-03-11T14:59:34.669Z,14.72
2023-03-11T15:00:34.665Z,14.71
2023-03-11T15:01:34.750Z,14.74
2023-03-11T15:02:34.639Z,14.70
2023-03-11T15:03:34.653Z,14.61
2023-03-11T15:04:34.653Z,14.53
2023-03-11T15:05:34.596Z,14.35
2023-03-11T15:06:34.645Z,14.35
2023-03-11T15:07:34.712Z,14.20
2023-03-11T15:08:34.612Z,14.04
2023-03-11T15:09:34.619Z,14.03
2023-03-11T15:10:34.591Z,14.15
2023-03-11T15:11:34.589Z,14.06
2023-03-11T15:31:15.000Z,12.35
2023-03-11T15:32:14.736Z,12.31
2023-03-11T15:33:14.820Z,12.31
2023-03-11T15:34:14.617Z,12.39
2023-03-11T15:35:14.627Z,12.51
2023-03-11T15:36:14.599Z,12.66
2023-03-11T15:37:14.598Z,12.67
2023-03-11T15:38:14.560Z,12.54
2023-03-11T15:39:14.625Z,12.24
2023-03-11T15:40:14.573Z,12.13
2023-03-11T15:41:14.571Z,12.12
2023-03-11T15:42:14.598Z,12.17
2023-03-11T15:43:14.549Z,12.14
2023-03-11T15:44:14.589Z,12.16
2023-03-11T15:45:14.557Z,12.28
2023-03-11T15:56:54.033Z,11.53
2023-03-11T16:08:30.085Z,10.93
2023-03-11T16:12:07.710Z,10.98
2023-03-11T16:13:07.408Z,11.10
2023-03-11T16:14:07.696Z,11.24
2023-03-11T16:15:07.412Z,11.34
2023-03-11T16:16:07.428Z,11.25
2023-03-11T16:17:07.454Z,11.17
2023-03-11T16:18:07.469Z,11.24
2023-03-11T16:19:07.444Z,11.27
2023-03-11T16:20:07.543Z,11.24
2023-03-11T16:36:07.694Z,11.18
2023-03-11T16:38:28.458Z,10.97
2023-03-11T16:39:28.181Z,10.99
2023-03-11T16:40:28.279Z,10.98
2023-03-11T16:52:06.754Z,10.74
2023-03-11T16:53:06.619Z,10.72
2023-03-11T16:54:06.203Z,10.69
2023-03-11T16:55:06.342Z,10.67
2023-03-11T16:56:06.537Z,10.79
2023-03-11T16:57:06.368Z,10.84
2023-03-11T16:58:06.851Z,10.84
2023-03-11T16:59:06.203Z,10.82
2023-03-11T17:00:06.161Z,10.88
2023-03-11T17:01:06.309Z,10.99
2023-03-11T17:02:06.218Z,11.03
2023-03-11T17:03:06.143Z,11.05
2023-03-11T17:04:06.103Z,11.04
2023-03-11T17:05:06.177Z,11.03
2023-03-11T17:06:06.145Z,10.93
2023-03-11T17:07:06.088Z,10.85
2023-03-11T17:08:06.119Z,10.75
2023-03-11T17:09:06.159Z,10.78
2023-03-11T17:10:06.122Z,10.84
2023-03-11T17:11:06.115Z,10.92
2023-03-11T17:12:06.138Z,10.77
2023-03-11T17:13:06.081Z,10.70
2023-03-11T17:14:15.867Z,10.66
2023-03-11T17:15:07.060Z,10.68
2023-03-11T17:16:06.050Z,10.68
2023-03-11T17:17:06.071Z,10.62
2023-03-11T17:18:06.006Z,10.67
2023-03-11T17:19:06.048Z,10.75
2023-03-11T17:20:06.036Z,10.76
2023-03-11T17:21:06.036Z,10.74
2023-03-11T17:22:06.022Z,10.77
2023-03-11T17:23:06.008Z,10.88
2023-03-11T17:24:06.010Z,10.93
2023-03-11T17:25:06.016Z,10.95
2023-03-11T17:26:06.268Z,10.93
2023-03-11T17:27:06.030Z,10.80
2023-03-11T17:28:06.109Z,10.67
2023-03-11T17:29:06.098Z,10.69
2023-03-11T17:30:06.196Z,10.74
2023-03-11T17:31:06.178Z,10.70
2023-03-11T17:32:06.175Z,10.75
2023-03-11T17:33:06.237Z,10.77
2023-03-11T17:34:06.236Z,10.79
2023-03-11T17:35:06.296Z,10.87
2023-03-11T17:36:06.292Z,10.92
2023-03-11T17:37:06.296Z,10.90
2023-03-11T17:38:06.311Z,10.89
2023-03-11T17:39:06.369Z,10.85
2023-03-11T17:40:06.468Z,10.85
2023-03-11T17:41:06.424Z,10.65
2023-03-11T17:42:06.412Z,10.67
2023-03-11T17:43:06.526Z,10.77
2023-03-11T17:44:06.529Z,10.86
2023-03-11T17:45:06.617Z,10.92
2023-03-11T17:46:06.556Z,10.84
2023-03-11T17:47:06.673Z,10.88
2023-03-11T17:48:06.631Z,10.94
2023-03-11T17:49:06.822Z,10.97
2023-03-11T17:50:06.771Z,10.89
2023-03-11T17:51:06.782Z,10.93
2023-03-11T17:52:06.772Z,11.02
2023-03-11T17:53:06.848Z,11.04
2023-03-11T17:54:06.793Z,10.95
2023-03-11T17:55:06.977Z,11.00
2023-03-11T17:56:06.952Z,10.82
2023-03-11T17:57:07.005Z,10.82
2023-03-11T17:58:06.998Z,10.85
2023-03-11T17:59:07.052Z,10.91
2023-03-11T18:00:07.139Z,11.01
2023-03-11T18:01:07.200Z,11.05
2023-03-11T18:02:07.208Z,11.07
2023-03-11T18:03:07.186Z,10.95
2023-03-11T18:04:07.264Z,10.94
2023-03-11T18:05:07.313Z,10.97
2023-03-11T18:06:07.356Z,11.01
2023-03-11T18:07:07.372Z,11.00
2023-03-11T18:08:07.379Z,11.01
2023-03-11T18:09:07.412Z,10.99
2023-03-11T18:10:07.498Z,11.01
2023-03-11T18:11:07.507Z,10.93
2023-03-11T18:12:07.548Z,10.97
2023-03-11T18:13:07.557Z,10.98
2023-03-11T18:14:07.597Z,10.91
2023-03-11T18:15:07.661Z,10.95
2023-03-11T18:16:07.701Z,10.97
2023-03-11T18:17:07.687Z,11.03
2023-03-11T18:18:07.748Z,11.03
2023-03-11T18:19:07.730Z,10.94
2023-03-11T18:20:07.745Z,10.84
2023-03-11T18:21:07.811Z,10.93
2023-03-11T18:22:07.819Z,10.99
2023-03-11T18:23:07.882Z,11.07
2023-03-11T18:24:07.825Z,11.07
2023-03-11T18:25:07.844Z,11.18
2023-03-11T18:26:08.105Z,11.21
2023-03-11T18:27:07.838Z,11.28
2023-03-11T18:28:07.860Z,11.30
2023-03-11T18:29:07.904Z,11.35
2023-03-11T18:30:07.922Z,11.39
2023-03-11T18:31:07.920Z,11.41
2023-03-11T18:32:08.068Z,11.45
2023-03-11T18:33:08.022Z,11.39
2023-03-11T18:34:08.018Z,11.30
2023-03-11T18:35:08.058Z,11.36
2023-03-11T18:36:08.081Z,11.38
2023-03-11T18:37:08.139Z,11.35
2023-03-11T18:38:08.161Z,11.33
2023-03-11T18:39:08.239Z,11.25
2023-03-11T18:40:24.572Z,11.17
2023-03-11T19:13:40.676Z,9.10
2023-03-11T19:15:28.196Z,9.21
2023-03-11T19:16:28.218Z,9.32
2023-03-11T19:17:28.170Z,9.37
2023-03-11T19:18:28.144Z,9.29
2023-03-11T19:31:28.030Z,9.53
2023-03-11T19:32:27.945Z,9.65
2023-03-11T19:33:44.062Z,9.66
2023-03-11T19:34:27.806Z,9.71
2023-03-11T19:35:27.968Z,9.72
2023-03-11T19:36:27.745Z,9.66
2023-03-11T19:37:27.734Z,9.67
2023-03-11T19:38:43.990Z,9.68
2023-03-11T19:39:27.779Z,9.68
2023-03-11T19:40:28.030Z,9.58
2023-03-11T19:41:27.723Z,9.59
2023-03-11T19:42:27.673Z,9.59
2023-03-11T20:02:07.867Z,9.52
2023-03-11T20:03:07.874Z,9.57
2023-03-11T20:04:07.649Z,9.57
2023-03-11T20:07:27.851Z,9.57
2023-03-11T20:08:27.757Z,9.52
2023-03-11T20:09:28.716Z,9.51
